sensor_id;sensor_type;location;lat;lon;timestamp;temperature;humidity
15676;DHT22;7938;47.666;9.434;2022-12-07T05:01:17;2.50;99.90
15676;DHT22;7938;47.666;9.434;2022-12-07T05:03:44;2.70;99.90
15676;DHT22;7938;47.666;9.434;2022-12-07T05:06:12;2.80;99.90
15676;DHT22;7938;47.666;9.434;2022-12-07T05:08:39;3.00;99.90
15676;DHT22;7938;47.666;9.434;2022-12-07T05:11:07;2.70;99.90
15676;DHT22;7938;47.666;9.434;2022-12-07T05:13:35;2.50;99.90
15676;DHT22;7938;47.666;9.434;2022-12-07T05:16:02;2.50;99.90
15676;DHT22;7938;47.666;9.434;2022-12-07T05:18:30;2.50;99.90
15676;DHT22;7938;47.666;9.434;2022-12-07T05:20:57;2.50;99.90
15676;DHT22;7938;47.666;9.434;2022-12-07T05:23:23;2.50;99.90
15676;DHT22;7938;47.666;9.434;2022-12-07T05:25:50;2.50;99.90
15676;DHT22;7938;47.666;9.434;2022-12-07T05:28:17;1.30;99.90
15676;DHT22;7938;47.666;9.434;2022-12-07T05:30:44;2.40;99.90
15676;DHT22;7938;47.666;9.434;2022-12-07T05:33:11;2.40;99.90
15676;DHT22;7938;47.666;9.434;2022-12-07T05:35:39;2.30;99.90
15676;DHT22;7938;47.666;9.434;2022-12-07T05:38:06;2.50;99.90
15676;DHT22;7938;47.666;9.434;2022-12-07T05:40:33;2.30;99.90
15676;DHT22;7938;47.666;9.434;2022-12-07T05:43:00;2.30;99.90
15676;DHT22;7938;47.666;9.434;2022-12-07T05:45:26;2.30;99.90
15676;DHT22;7938;47.666;9.434;2022-12-07T05:47:53;2.20;99.90
15676;DHT22;7938;47.666;9.434;2022-12-07T05:50:20;2.20;99.90
15676;DHT22;7938;47.666;9.434;2022-12-07T05:52:48;2.30;99.90
15676;DHT22;7938;47.666;9.434;2022-12-07T05:55:15;2.30;99.90
15676;DHT22;7938;47.666;9.434;2022-12-07T05:57:42;2.30;99.90
15676;DHT22;7938;47.666;9.434;2022-12-07T06:00:29;2.20;99.90
15676;DHT22;7938;47.666;9.434;2022-12-07T06:02:55;2.30;99.90
15676;DHT22;7938;47.666;9.434;2022-12-07T06:05:22;2.30;99.90
15676;DHT22;7938;47.666;9.434;2022-12-07T06:07:50;2.20;99.90
15676;DHT22;7938;47.666;9.434;2022-12-07T06:10:17;2.20;99.90
15676;DHT22;7938;47.666;9.434;2022-12-07T06:12:44;2.30;99.90
15676;DHT22;7938;47.666;9.434;2022-12-07T06:15:11;2.30;99.90
15676;DHT22;7938;47.666;9.434;2022-12-07T06:17:39;2.20;99.90
15676;DHT22;7938;47.666;9.434;2022-12-07T06:20:06;2.30;99.90
15676;DHT22;7938;47.666;9.434;2022-12-07T06:22:33;2.30;99.90
15676;DHT22;7938;47.666;9.434;2022-12-07T06:25:02;2.10;99.90
15676;DHT22;7938;47.666;9.434;2022-12-07T06:27:29;2.30;99.90
15676;DHT22;7938;47.666;9.434;2022-12-07T06:29:58;2.20;99.90
15676;DHT22;7938;47.666;9.434;2022-12-07T06:32:25;2.20;99.90
15676;DHT22;7938;47.666;9.434;2022-12-07T06:34:52;2.20;99.90
15676;DHT22;7938;47.666;9.434;2022-12-07T06:37:19;2.20;99.90
15676;DHT22;7938;47.666;9.434;2022-12-07T06:39:45;2.20;99.90
15676;DHT22;7938;47.666;9.434;2022-12-07T06:42:14;2.20;99.90
15676;DHT22;7938;47.666;9.434;2022-12-07T06:44:40;2.30;99.90
15676;DHT22;7938;47.666;9.434;2022-12-07T06:47:07;2.20;99.90
15676;DHT22;7938;47.666;9.434;2022-12-07T06:49:34;2.50;99.90
15676;DHT22;7938;47.666;9.434;2022-12-07T06:52:01;2.20;99.90
15676;DHT22;7938;47.666;9.434;2022-12-07T06:54:30;2.30;99.90
15676;DHT22;7938;47.666;9.434;2022-12-07T06:56:57;2.10;99.90
15676;DHT22;7938;47.666;9.434;2022-12-07T06:59:26;2.20;99.90
15676;DHT22;7938;47.666;9.434;2022-12-07T07:01:53;2.30;99.90
15676;DHT22;7938;47.666;9.434;2022-12-07T07:04:19;2.30;99.90
15676;DHT22;7938;47.666;9.434;2022-12-07T07:06:46;2.30;99.90
15676;DHT22;7938;47.666;9.434;2022-12-07T07:09:13;2.30;99.90
15676;DHT22;7938;47.666;9.434;2022-12-07T07:11:40;2.30;99.90
15676;DHT22;7938;47.666;9.434;2022-12-07T07:14:07;2.40;99.90
15676;DHT22;7938;47.666;9.434;2022-12-07T07:16:35;2.40;99.90
15676;DHT22;7938;47.666;9.434;2022-12-07T07:19:02;2.50;99.90
15676;DHT22;7938;47.666;9.434;2022-12-07T07:21:29;2.40;99.90
15676;DHT22;7938;47.666;9.434;2022-12-07T07:23:56;2.40;99.90
15676;DHT22;7938;47.666;9.434;2022-12-07T07:26:22;2.40;99.90
15676;DHT22;7938;47.666;9.434;2022-12-07T07:28:49;2.60;99.90
15676;DHT22;7938;47.666;9.434;2022-12-07T07:31:16;2.50;99.90
15676;DHT22;7938;47.666;9.434;2022-12-07T07:33:45;2.60;99.90
15676;DHT22;7938;47.666;9.434;2022-12-07T07:36:11;2.60;99.90
15676;DHT22;7938;47.666;9.434;2022-12-07T07:38:38;1.80;99.90
15676;DHT22;7938;47.666;9.434;2022-12-07T07:41:05;2.40;99.90
15676;DHT22;7938;47.666;9.434;2022-12-07T07:43:32;2.30;99.90
15676;DHT22;7938;47.666;9.434;2022-12-07T07:45:59;2.30;99.90
15676;DHT22;7938;47.666;9.434;2022-12-07T07:48:26;2.30;99.90
15676;DHT22;7938;47.666;9.434;2022-12-07T07:50:54;2.30;99.90
15676;DHT22;7938;47.666;9.434;2022-12-07T07:53:21;2.20;99.90
15676;DHT22;7938;47.666;9.434;2022-12-07T07:55:51;2.40;99.90
15676;DHT22;7938;47.666;9.434;2022-12-07T07:58:19;2.30;99.90
15676;DHT22;7938;47.666;9.434;2022-12-07T08:00:46;2.20;99.90
15676;DHT22;7938;47.666;9.434;2022-12-07T08:03:13;2.20;99.90
15676;DHT22;7938;47.666;9.434;2022-12-07T08:05:40;2.40;99.90
15676;DHT22;7938;47.666;9.434;2022-12-07T08:08:08;2.40;99.90
15676;DHT22;7938;47.666;9.434;2022-12-07T08:10:35;2.40;99.90
15676;DHT22;7938;47.666;9.434;2022-12-07T08:13:03;2.50;99.90
15676;DHT22;7938;47.666;9.434;2022-12-07T08:15:41;2.40;99.90
15676;DHT22;7938;47.666;9.434;2022-12-07T08:18:08;2.50;99.90
15676;DHT22;7938;47.666;9.434;2022-12-07T08:20:36;2.50;99.90
15676;DHT22;7938;47.666;9.434;2022-12-07T08:23:04;2.50;99.90
15676;DHT22;7938;47.666;9.434;2022-12-07T08:25:33;2.50;99.90
15676;DHT22;7938;47.666;9.434;2022-12-07T08:28:01;2.50;99.90
15676;DHT22;7938;47.666;9.434;2022-12-07T08:30:28;2.50;99.90
15676;DHT22;7938;47.666;9.434;2022-12-07T08:32:56;2.60;99.90
15676;DHT22;7938;47.666;9.434;2022-12-07T08:35:23;2.60;99.90
15676;DHT22;7938;47.666;9.434;2022-12-07T08:37:50;2.60;99.90
15676;DHT22;7938;47.666;9.434;2022-12-07T08:40:17;2.70;99.90
15676;DHT22;7938;47.666;9.434;2022-12-07T08:42:48;2.60;99.90
15676;DHT22;7938;47.666;9.434;2022-12-07T08:45:16;2.60;99.90
15676;DHT22;7938;47.666;9.434;2022-12-07T08:47:46;2.80;99.90
15676;DHT22;7938;47.666;9.434;2022-12-07T08:50:15;2.70;99.90
15676;DHT22;7938;47.666;9.434;2022-12-07T08:52:42;2.80;99.90
15676;DHT22;7938;47.666;9.434;2022-12-07T08:55:10;2.70;99.90
15676;DHT22;7938;47.666;9.434;2022-12-07T08:57:38;3.20;99.90
15676;DHT22;7938;47.666;9.434;2022-12-07T09:00:08;2.70;99.90
15676;DHT22;7938;47.666;9.434;2022-12-07T09:02:35;2.80;99.90
15676;DHT22;7938;47.666;9.434;2022-12-07T09:05:03;2.90;99.90
15676;DHT22;7938;47.666;9.434;2022-12-07T09:07:31;2.70;99.90
15676;DHT22;7938;47.666;9.434;2022-12-07T09:09:58;2.80;99.90
15676;DHT22;7938;47.666;9.434;2022-12-07T09:12:25;2.80;99.90
15676;DHT22;7938;47.666;9.434;2022-12-07T09:14:52;2.70;99.90
15676;DHT22;7938;47.666;9.434;2022-12-07T09:17:20;3.20;99.90
15676;DHT22;7938;47.666;9.434;2022-12-07T09:19:47;2.90;99.90
15676;DHT22;7938;47.666;9.434;2022-12-07T09:22:14;3.80;99.90
15676;DHT22;7938;47.666;9.434;2022-12-07T09:24:41;2.80;99.90
15676;DHT22;7938;47.666;9.434;2022-12-07T09:27:08;2.80;99.90
15676;DHT22;7938;47.666;9.434;2022-12-07T09:29:35;2.70;99.90
15676;DHT22;7938;47.666;9.434;2022-12-07T09:32:03;2.80;99.90
15676;DHT22;7938;47.666;9.434;2022-12-07T09:34:32;2.70;99.90
15676;DHT22;7938;47.666;9.434;2022-12-07T09:37:00;2.80;99.90
15676;DHT22;7938;47.666;9.434;2022-12-07T09:39:28;2.70;99.90
15676;DHT22;7938;47.666;9.434;2022-12-07T09:41:56;2.70;99.90
15676;DHT22;7938;47.666;9.434;2022-12-07T09:44:25;2.80;99.90
15676;DHT22;7938;47.666;9.434;2022-12-07T09:46:53;2.80;99.90
15676;DHT22;7938;47.666;9.434;2022-12-07T09:49:21;2.80;99.90
15676;DHT22;7938;47.666;9.434;2022-12-07T09:52:00;2.80;99.90
15676;DHT22;7938;47.666;9.434;2022-12-07T09:54:29;2.90;99.90
15676;DHT22;7938;47.666;9.434;2022-12-07T09:56:56;3.10;99.90
15676;DHT22;7938;47.666;9.434;2022-12-07T09:59:23;3.20;99.90
15676;DHT22;7938;47.666;9.434;2022-12-07T10:01:50;3.10;99.90
15676;DHT22;7938;47.666;9.434;2022-12-07T10:04:19;3.20;99.90
15676;DHT22;7938;47.666;9.434;2022-12-07T10:06:48;3.10;99.90
15676;DHT22;7938;47.666;9.434;2022-12-07T10:09:19;3.10;99.90
15676;DHT22;7938;47.666;9.434;2022-12-07T10:12:00;3.20;99.90
15676;DHT22;7938;47.666;9.434;2022-12-07T10:14:29;3.10;99.90
15676;DHT22;7938;47.666;9.434;2022-12-07T10:16:57;3.20;99.90
15676;DHT22;7938;47.666;9.434;2022-12-07T10:19:25;3.20;99.90
15676;DHT22;7938;47.666;9.434;2022-12-07T10:22:10;3.30;99.90
15676;DHT22;7938;47.666;9.434;2022-12-07T10:24:39;3.40;99.90
15676;DHT22;7938;47.666;9.434;2022-12-07T10:27:18;3.50;99.90
15676;DHT22;7938;47.666;9.434;2022-12-07T10:29:48;3.50;99.90
15676;DHT22;7938;47.666;9.434;2022-12-07T10:32:32;3.40;99.90
15676;DHT22;7938;47.666;9.434;2022-12-07T10:35:21;3.60;99.90
15676;DHT22;7938;47.666;9.434;2022-12-07T10:37:49;3.60;99.90
15676;DHT22;7938;47.666;9.434;2022-12-07T10:40:30;3.50;99.90
15676;DHT22;7938;47.666;9.434;2022-12-07T10:43:02;3.60;99.90
15676;DHT22;7938;47.666;9.434;2022-12-07T10:45:29;3.80;99.90
15676;DHT22;7938;47.666;9.434;2022-12-07T10:48:01;3.90;99.90
15676;DHT22;7938;47.666;9.434;2022-12-07T10:50:47;3.90;99.90
15676;DHT22;7938;47.666;9.434;2022-12-07T10:53:41;3.90;99.90
15676;DHT22;7938;47.666;9.434;2022-12-07T10:56:29;4.00;99.90
15676;DHT22;7938;47.666;9.434;2022-12-07T10:59:09;3.90;99.90
15676;DHT22;7938;47.666;9.434;2022-12-07T11:01:43;3.90;99.90
15676;DHT22;7938;47.666;9.434;2022-12-07T11:04:18;3.90;99.90
15676;DHT22;7938;47.666;9.434;2022-12-07T11:06:54;3.80;99.90
15676;DHT22;7938;47.666;9.434;2022-12-07T11:09:49;3.70;99.90
15676;DHT22;7938;47.666;9.434;2022-12-07T11:12:29;3.70;99.90
15676;DHT22;7938;47.666;9.434;2022-12-07T11:15:01;3.80;99.90
15676;DHT22;7938;47.666;9.434;2022-12-07T11:17:36;3.70;99.90
15676;DHT22;7938;47.666;9.434;2022-12-07T11:20:19;3.80;99.90
15676;DHT22;7938;47.666;9.434;2022-12-07T11:22:57;3.60;99.90
15676;DHT22;7938;47.666;9.434;2022-12-07T11:25:32;3.80;99.90
15676;DHT22;7938;47.666;9.434;2022-12-07T11:28:15;3.80;99.90
15676;DHT22;7938;47.666;9.434;2022-12-07T11:30:51;3.80;99.90
15676;DHT22;7938;47.666;9.434;2022-12-07T11:33:26;3.30;99.90
15676;DHT22;7938;47.666;9.434;2022-12-07T11:36:07;3.70;99.90
15676;DHT22;7938;47.666;9.434;2022-12-07T11:38:43;3.90;99.90
15676;DHT22;7938;47.666;9.434;2022-12-07T11:41:11;4.30;99.90
15676;DHT22;7938;47.666;9.434;2022-12-07T11:43:52;4.00;99.90
15676;DHT22;7938;47.666;9.434;2022-12-07T11:46:22;3.90;99.90
15676;DHT22;7938;47.666;9.434;2022-12-07T11:48:56;3.70;99.90
15676;DHT22;7938;47.666;9.434;2022-12-07T11:51:25;3.70;99.90
15676;DHT22;7938;47.666;9.434;2022-12-07T11:53:57;3.90;99.90
15676;DHT22;7938;47.666;9.434;2022-12-07T11:56:28;3.80;99.90
15676;DHT22;7938;47.666;9.434;2022-12-07T11:59:00;3.80;99.90
15676;DHT22;7938;47.666;9.434;2022-12-07T12:01:40;4.00;99.90
15676;DHT22;7938;47.666;9.434;2022-12-07T12:04:23;3.90;99.90
15676;DHT22;7938;47.666;9.434;2022-12-07T12:06:52;3.90;99.90
15676;DHT22;7938;47.666;9.434;2022-12-07T12:09:23;3.90;99.90
15676;DHT22;7938;47.666;9.434;2022-12-07T12:12:06;3.80;99.90
15676;DHT22;7938;47.666;9.434;2022-12-07T12:14:46;3.80;99.90
15676;DHT22;7938;47.666;9.434;2022-12-07T12:17:39;3.80;99.90
15676;DHT22;7938;47.666;9.434;2022-12-07T12:20:19;3.90;99.90
15676;DHT22;7938;47.666;9.434;2022-12-07T12:22:51;4.10;99.90
15676;DHT22;7938;47.666;9.434;2022-12-07T12:25:22;4.10;99.90
15676;DHT22;7938;47.666;9.434;2022-12-07T12:27:50;4.10;99.90
15676;DHT22;7938;47.666;9.434;2022-12-07T12:30:34;4.20;99.90
15676;DHT22;7938;47.666;9.434;2022-12-07T12:33:05;4.20;99.90
15676;DHT22;7938;47.666;9.434;2022-12-07T12:35:34;4.30;99.90
15676;DHT22;7938;47.666;9.434;2022-12-07T12:38:26;4.00;99.90
15676;DHT22;7938;47.666;9.434;2022-12-07T12:40:53;4.30;99.90
15676;DHT22;7938;47.666;9.434;2022-12-07T12:43:47;4.30;99.90
15676;DHT22;7938;47.666;9.434;2022-12-07T12:46:50;4.40;99.90
15676;DHT22;7938;47.666;9.434;2022-12-07T12:49:38;4.20;99.90
15676;DHT22;7938;47.666;9.434;2022-12-07T12:58:37;4.00;99.90
15676;DHT22;7938;47.666;9.434;2022-12-07T13:01:43;4.10;99.90
15676;DHT22;7938;47.666;9.434;2022-12-07T13:04:50;4.90;99.90
15676;DHT22;7938;47.666;9.434;2022-12-07T13:07:55;4.00;99.90
15676;DHT22;7938;47.666;9.434;2022-12-07T13:10:35;4.30;99.90
15676;DHT22;7938;47.666;9.434;2022-12-07T13:15:49;4.00;99.90
15676;DHT22;7938;47.666;9.434;2022-12-07T13:18:23;4.10;99.90
15676;DHT22;7938;47.666;9.434;2022-12-07T13:20:55;4.30;99.90
15676;DHT22;7938;47.666;9.434;2022-12-07T13:23:25;4.30;99.90
15676;DHT22;7938;47.666;9.434;2022-12-07T13:25:56;4.40;99.90
15676;DHT22;7938;47.666;9.434;2022-12-07T13:28:31;4.60;99.90
15676;DHT22;7938;47.666;9.434;2022-12-07T13:31:11;4.50;99.90
15676;DHT22;7938;47.666;9.434;2022-12-07T13:33:41;4.50;99.90
15676;DHT22;7938;47.666;9.434;2022-12-07T13:36:17;4.70;99.90
15676;DHT22;7938;47.666;9.434;2022-12-07T13:38:50;4.60;99.90
15676;DHT22;7938;47.666;9.434;2022-12-07T13:41:19;4.50;99.90
15676;DHT22;7938;47.666;9.434;2022-12-07T13:43:50;4.40;99.90
15676;DHT22;7938;47.666;9.434;2022-12-07T13:46:20;4.60;99.90
15676;DHT22;7938;47.666;9.434;2022-12-07T13:48:51;4.60;99.90
15676;DHT22;7938;47.666;9.434;2022-12-07T13:51:22;4.50;99.90
15676;DHT22;7938;47.666;9.434;2022-12-07T13:53:52;4.50;99.90
15676;DHT22;7938;47.666;9.434;2022-12-07T13:56:22;4.60;99.90
15676;DHT22;7938;47.666;9.434;2022-12-07T13:58:52;4.50;99.90
15676;DHT22;7938;47.666;9.434;2022-12-07T14:01:19;4.40;99.90
15676;DHT22;7938;47.666;9.434;2022-12-07T14:03:46;4.50;99.90
15676;DHT22;7938;47.666;9.434;2022-12-07T14:06:22;4.50;99.90
15676;DHT22;7938;47.666;9.434;2022-12-07T14:09:06;4.50;99.90
15676;DHT22;7938;47.666;9.434;2022-12-07T14:11:33;4.50;99.90
15676;DHT22;7938;47.666;9.434;2022-12-07T14:14:02;4.50;99.90
15676;DHT22;7938;47.666;9.434;2022-12-07T14:16:31;4.50;99.90
15676;DHT22;7938;47.666;9.434;2022-12-07T14:19:00;4.30;99.90
15676;DHT22;7938;47.666;9.434;2022-12-07T14:21:29;4.30;99.90
15676;DHT22;7938;47.666;9.434;2022-12-07T14:24:09;4.40;99.90
15676;DHT22;7938;47.666;9.434;2022-12-07T14:26:37;4.30;99.90
15676;DHT22;7938;47.666;9.434;2022-12-07T14:29:35;4.40;99.90
15676;DHT22;7938;47.666;9.434;2022-12-07T14:32:21;4.10;99.90
15676;DHT22;7938;47.666;9.434;2022-12-07T14:34:54;4.20;99.90
15676;DHT22;7938;47.666;9.434;2022-12-07T14:37:21;4.20;99.90
15676;DHT22;7938;47.666;9.434;2022-12-07T14:39:50;4.20;99.90
15676;DHT22;7938;47.666;9.434;2022-12-07T14:42:17;4.10;99.90
15676;DHT22;7938;47.666;9.434;2022-12-07T14:44:44;4.10;99.90
15676;DHT22;7938;47.666;9.434;2022-12-07T14:47:12;3.90;99.90
15676;DHT22;7938;47.666;9.434;2022-12-07T14:49:38;3.80;99.90
15676;DHT22;7938;47.666;9.434;2022-12-07T14:52:08;3.60;99.90
15676;DHT22;7938;47.666;9.434;2022-12-07T14:54:36;3.70;99.90
15676;DHT22;7938;47.666;9.434;2022-12-07T14:57:04;3.60;99.90
15676;DHT22;7938;47.666;9.434;2022-12-07T14:59:31;3.50;99.90
15676;DHT22;7938;47.666;9.434;2022-12-07T15:01:58;3.60;99.90
15676;DHT22;7938;47.666;9.434;2022-12-07T15:04:25;3.50;99.90
15676;DHT22;7938;47.666;9.434;2022-12-07T15:06:56;3.40;99.90
15676;DHT22;7938;47.666;9.434;2022-12-07T15:09:22;3.40;99.90
15676;DHT22;7938;47.666;9.434;2022-12-07T15:11:49;3.30;99.90
15676;DHT22;7938;47.666;9.434;2022-12-07T15:14:18;3.30;99.90
15676;DHT22;7938;47.666;9.434;2022-12-07T15:16:44;3.30;99.90
15676;DHT22;7938;47.666;9.434;2022-12-07T15:19:13;3.20;99.90
15676;DHT22;7938;47.666;9.434;2022-12-07T15:21:41;3.20;99.90
15676;DHT22;7938;47.666;9.434;2022-12-07T15:24:09;3.20;99.90
15676;DHT22;7938;47.666;9.434;2022-12-07T15:26:37;3.10;99.90
15676;DHT22;7938;47.666;9.434;2022-12-07T15:29:04;3.10;99.90
15676;DHT22;7938;47.666;9.434;2022-12-07T15:31:33;3.00;99.90
15676;DHT22;7938;47.666;9.434;2022-12-07T15:34:02;3.00;99.90
15676;DHT22;7938;47.666;9.434;2022-12-07T15:36:30;3.10;99.90
15676;DHT22;7938;47.666;9.434;2022-12-07T15:38:58;3.10;99.90
15676;DHT22;7938;47.666;9.434;2022-12-07T15:41:25;3.30;99.90
15676;DHT22;7938;47.666;9.434;2022-12-07T15:43:52;3.00;99.90
15676;DHT22;7938;47.666;9.434;2022-12-07T15:46:39;2.90;99.90
15676;DHT22;7938;47.666;9.434;2022-12-07T15:49:11;2.80;99.90
15676;DHT22;7938;47.666;9.434;2022-12-07T15:51:39;2.80;99.90
15676;DHT22;7938;47.666;9.434;2022-12-07T15:54:07;2.90;99.90
15676;DHT22;7938;47.666;9.434;2022-12-07T15:56:34;3.20;99.90
15676;DHT22;7938;47.666;9.434;2022-12-07T15:59:00;2.50;99.90
15676;DHT22;7938;47.666;9.434;2022-12-07T16:01:27;2.70;99.90
15676;DHT22;7938;47.666;9.434;2022-12-07T16:03:57;2.60;99.90
15676;DHT22;7938;47.666;9.434;2022-12-07T16:06:24;2.60;99.90
15676;DHT22;7938;47.666;9.434;2022-12-07T16:08:51;2.50;99.90
15676;DHT22;7938;47.666;9.434;2022-12-07T16:11:18;2.50;99.90
15676;DHT22;7938;47.666;9.434;2022-12-07T16:13:45;2.50;99.90
15676;DHT22;7938;47.666;9.434;2022-12-07T16:16:13;2.50;99.90
15676;DHT22;7938;47.666;9.434;2022-12-07T16:18:43;2.40;99.90
15676;DHT22;7938;47.666;9.434;2022-12-07T16:21:12;2.40;99.90
15676;DHT22;7938;47.666;9.434;2022-12-07T16:23:39;2.50;99.90
15676;DHT22;7938;47.666;9.434;2022-12-07T16:26:07;2.50;99.90
15676;DHT22;7938;47.666;9.434;2022-12-07T16:28:35;2.40;99.90
15676;DHT22;7938;47.666;9.434;2022-12-07T16:31:03;2.40;99.90
15676;DHT22;7938;47.666;9.434;2022-12-07T16:33:33;2.30;99.90
15676;DHT22;7938;47.666;9.434;2022-12-07T16:36:01;2.40;99.90
15676;DHT22;7938;47.666;9.434;2022-12-07T16:38:29;2.40;99.90
15676;DHT22;7938;47.666;9.434;2022-12-07T16:40:56;2.40;99.90
15676;DHT22;7938;47.666;9.434;2022-12-07T16:43:23;2.40;99.90
15676;DHT22;7938;47.666;9.434;2022-12-07T16:45:50;1.70;99.90
15676;DHT22;7938;47.666;9.434;2022-12-07T16:48:17;2.30;99.90
15676;DHT22;7938;47.666;9.434;2022-12-07T16:50:44;2.30;99.90
15676;DHT22;7938;47.666;9.434;2022-12-07T16:53:13;2.10;99.90
15676;DHT22;7938;47.666;9.434;2022-12-07T16:55:43;2.30;99.90
15676;DHT22;7938;47.666;9.434;2022-12-07T16:58:10;2.10;99.90
15676;DHT22;7938;47.666;9.434;2022-12-07T17:00:38;2.30;99.90
15676;DHT22;7938;47.666;9.434;2022-12-07T17:03:05;2.20;99.90
15676;DHT22;7938;47.666;9.434;2022-12-07T17:05:32;2.40;99.90
15676;DHT22;7938;47.666;9.434;2022-12-07T17:07:59;2.50;99.90
15676;DHT22;7938;47.666;9.434;2022-12-07T17:10:27;2.30;99.90
15676;DHT22;7938;47.666;9.434;2022-12-07T17:12:56;2.30;99.90
15676;DHT22;7938;47.666;9.434;2022-12-07T17:15:23;2.30;99.90
15676;DHT22;7938;47.666;9.434;2022-12-07T17:17:52;2.40;99.90
15676;DHT22;7938;47.666;9.434;2022-12-07T17:20:20;2.40;99.90
15676;DHT22;7938;47.666;9.434;2022-12-07T17:22:48;2.50;99.90
15676;DHT22;7938;47.666;9.434;2022-12-07T17:25:16;2.40;99.90
15676;DHT22;7938;47.666;9.434;2022-12-07T17:27:43;2.40;99.90
15676;DHT22;7938;47.666;9.434;2022-12-07T17:30:13;2.50;99.90
15676;DHT22;7938;47.666;9.434;2022-12-07T17:32:41;2.50;99.90
15676;DHT22;7938;47.666;9.434;2022-12-07T17:35:08;2.40;99.90
15676;DHT22;7938;47.666;9.434;2022-12-07T17:37:36;2.20;99.90
15676;DHT22;7938;47.666;9.434;2022-12-07T17:40:04;2.30;99.90
15676;DHT22;7938;47.666;9.434;2022-12-07T17:42:31;2.20;99.90
15676;DHT22;7938;47.666;9.434;2022-12-07T17:45:07;2.10;99.90
15676;DHT22;7938;47.666;9.434;2022-12-07T17:47:36;2.00;99.90
15676;DHT22;7938;47.666;9.434;2022-12-07T17:50:04;2.10;99.90
15676;DHT22;7938;47.666;9.434;2022-12-07T17:52:32;2.00;99.90
15676;DHT22;7938;47.666;9.434;2022-12-07T17:55:16;2.00;99.90
15676;DHT22;7938;47.666;9.434;2022-12-07T17:57:43;2.00;99.90
15676;DHT22;7938;47.666;9.434;2022-12-07T18:00:11;2.00;99.90
15676;DHT22;7938;47.666;9.434;2022-12-07T18:02:39;2.10;99.90
15676;DHT22;7938;47.666;9.434;2022-12-07T18:05:07;2.10;99.90
15676;DHT22;7938;47.666;9.434;2022-12-07T18:07:34;1.90;99.90
15676;DHT22;7938;47.666;9.434;2022-12-07T18:10:01;1.90;99.90
15676;DHT22;7938;47.666;9.434;2022-12-07T18:12:29;1.90;99.90
15676;DHT22;7938;47.666;9.434;2022-12-07T18:14:56;1.90;99.90
15676;DHT22;7938;47.666;9.434;2022-12-07T18:17:23;1.90;99.90
15676;DHT22;7938;47.666;9.434;2022-12-07T18:19:51;2.00;99.90
15676;DHT22;7938;47.666;9.434;2022-12-07T18:22:18;2.00;99.90
15676;DHT22;7938;47.666;9.434;2022-12-07T18:24:45;1.90;99.90
15676;DHT22;7938;47.666;9.434;2022-12-07T18:27:12;1.90;99.90
15676;DHT22;7938;47.666;9.434;2022-12-07T18:29:39;1.90;99.90
15676;DHT22;7938;47.666;9.434;2022-12-07T18:32:06;1.90;99.90
15676;DHT22;7938;47.666;9.434;2022-12-07T18:34:33;1.40;99.90
15676;DHT22;7938;47.666;9.434;2022-12-07T18:37:01;2.00;99.90
15676;DHT22;7938;47.666;9.434;2022-12-07T18:39:28;1.90;99.90
15676;DHT22;7938;47.666;9.434;2022-12-07T18:41:55;1.90;99.90
15676;DHT22;7938;47.666;9.434;2022-12-07T18:44:22;1.70;99.90
15676;DHT22;7938;47.666;9.434;2022-12-07T18:46:49;1.80;99.90
15676;DHT22;7938;47.666;9.434;2022-12-07T18:49:16;1.70;99.90
15676;DHT22;7938;47.666;9.434;2022-12-07T18:51:43;1.80;99.90
15676;DHT22;7938;47.666;9.434;2022-12-07T18:54:11;1.80;99.90
15676;DHT22;7938;47.666;9.434;2022-12-07T18:56:38;1.80;99.90
15676;DHT22;7938;47.666;9.434;2022-12-07T18:59:06;1.70;99.90
15676;DHT22;7938;47.666;9.434;2022-12-07T19:01:52;1.70;99.90
15676;DHT22;7938;47.666;9.434;2022-12-07T19:04:20;1.70;99.90
15676;DHT22;7938;47.666;9.434;2022-12-07T19:06:48;1.40;99.90
15676;DHT22;7938;47.666;9.434;2022-12-07T19:09:17;1.40;99.90
15676;DHT22;7938;47.666;9.434;2022-12-07T19:11:44;1.50;99.90
15676;DHT22;7938;47.666;9.434;2022-12-07T19:14:23;1.60;99.90
15676;DHT22;7938;47.666;9.434;2022-12-07T19:16:52;1.50;99.90
15676;DHT22;7938;47.666;9.434;2022-12-07T19:19:21;1.50;99.90
15676;DHT22;7938;47.666;9.434;2022-12-07T19:21:48;1.60;99.90
15676;DHT22;7938;47.666;9.434;2022-12-07T19:24:17;1.40;99.90
15676;DHT22;7938;47.666;9.434;2022-12-07T19:26:44;1.40;99.90
15676;DHT22;7938;47.666;9.434;2022-12-07T19:29:11;1.60;99.90
15676;DHT22;7938;47.666;9.434;2022-12-07T19:31:38;1.30;99.90
15676;DHT22;7938;47.666;9.434;2022-12-07T19:34:09;1.30;99.90
15676;DHT22;7938;47.666;9.434;2022-12-07T19:36:36;1.40;99.90
15676;DHT22;7938;47.666;9.434;2022-12-07T19:39:03;1.40;99.90
15676;DHT22;7938;47.666;9.434;2022-12-07T19:41:32;1.30;99.90
15676;DHT22;7938;47.666;9.434;2022-12-07T19:44:08;1.40;99.90
15676;DHT22;7938;47.666;9.434;2022-12-07T19:46:36;1.40;99.90
15676;DHT22;7938;47.666;9.434;2022-12-07T19:49:03;1.50;99.90
15676;DHT22;7938;47.666;9.434;2022-12-07T19:51:31;1.30;99.90
15676;DHT22;7938;47.666;9.434;2022-12-07T19:53:59;1.30;99.90
15676;DHT22;7938;47.666;9.434;2022-12-07T19:56:27;1.40;99.90
15676;DHT22;7938;47.666;9.434;2022-12-07T19:58:58;1.30;99.90
15676;DHT22;7938;47.666;9.434;2022-12-07T20:01:25;1.30;99.90
15676;DHT22;7938;47.666;9.434;2022-12-07T20:03:52;1.30;99.90
15676;DHT22;7938;47.666;9.434;2022-12-07T20:06:19;1.40;99.90
15676;DHT22;7938;47.666;9.434;2022-12-07T20:08:47;1.30;99.90
15676;DHT22;7938;47.666;9.434;2022-12-07T20:11:16;1.20;99.90
15676;DHT22;7938;47.666;9.434;2022-12-07T20:14:04;1.30;99.90
15676;DHT22;7938;47.666;9.434;2022-12-07T20:16:31;1.30;99.90
15676;DHT22;7938;47.666;9.434;2022-12-07T20:18:58;1.30;99.90
15676;DHT22;7938;47.666;9.434;2022-12-07T20:21:25;1.30;99.90
15676;DHT22;7938;47.666;9.434;2022-12-07T20:23:52;1.20;99.90
15676;DHT22;7938;47.666;9.434;2022-12-07T20:26:19;1.30;99.90
15676;DHT22;7938;47.666;9.434;2022-12-07T20:28:46;1.30;99.90
15676;DHT22;7938;47.666;9.434;2022-12-07T20:31:15;1.30;99.90
15676;DHT22;7938;47.666;9.434;2022-12-07T20:33:43;1.20;99.90
15676;DHT22;7938;47.666;9.434;2022-12-07T20:36:12;1.10;99.90
15676;DHT22;7938;47.666;9.434;2022-12-07T20:38:40;1.20;99.90
15676;DHT22;7938;47.666;9.434;2022-12-07T20:41:09;1.10;99.90
15676;DHT22;7938;47.666;9.434;2022-12-07T20:43:58;1.10;99.90
15676;DHT22;7938;47.666;9.434;2022-12-07T20:46:26;1.30;99.90
15676;DHT22;7938;47.666;9.434;2022-12-07T20:48:56;1.20;99.90
15676;DHT22;7938;47.666;9.434;2022-12-07T20:51:23;1.30;99.90
15676;DHT22;7938;47.666;9.434;2022-12-07T20:53:50;1.20;99.90
15676;DHT22;7938;47.666;9.434;2022-12-07T20:56:18;1.10;99.90
15676;DHT22;7938;47.666;9.434;2022-12-07T20:58:45;1.20;99.90
15676;DHT22;7938;47.666;9.434;2022-12-07T21:01:12;1.40;99.90
15676;DHT22;7938;47.666;9.434;2022-12-07T21:03:40;1.20;99.90
15676;DHT22;7938;47.666;9.434;2022-12-07T21:06:09;1.30;99.90
15676;DHT22;7938;47.666;9.434;2022-12-07T21:08:36;1.20;99.90
15676;DHT22;7938;47.666;9.434;2022-12-07T21:11:06;1.40;99.90
15676;DHT22;7938;47.666;9.434;2022-12-07T21:13:33;1.20;99.90
15676;DHT22;7938;47.666;9.434;2022-12-07T21:16:06;1.10;99.90
15676;DHT22;7938;47.666;9.434;2022-12-07T21:18:33;1.30;99.90
15676;DHT22;7938;47.666;9.434;2022-12-07T21:21:02;1.50;99.90
15676;DHT22;7938;47.666;9.434;2022-12-07T21:23:28;1.50;99.90
15676;DHT22;7938;47.666;9.434;2022-12-07T21:25:55;1.50;99.90
15676;DHT22;7938;47.666;9.434;2022-12-07T21:28:22;1.30;99.90
15676;DHT22;7938;47.666;9.434;2022-12-07T21:30:49;1.30;99.90